Salina, Kansas
Current Conditions -  °F | °C
As of 3:44 PM on Thursday 18 Dec 2014 (Local Time) from KSLN Reporting Station
Overcast Overcast  
Wind Chill: -3°   Ceiling: 1000
Heat Index:   Visibility: 7mi
Dew Point: -3°   Wind: 5mph
Humidity: 82%   Direction: 330°NNW
Pressure: 30.2"   Gusts: NA
Location:  38.84°N, 97.61°W
Report Text: KSLN 182144Z 33004KT 7SM OVC010 00/M03 A3020 RMK AO2 T00001028
Loading
Personal Weather Stations






























Interactive Weather Map New forecast layout! Learn more

10-Day Weather Forecast

Advertisements
Track Severe Weather on mobile